createdAt,value
2016-07-31T00:00:57.963Z,74.79
2016-07-31T00:01:57.944Z,74.79
2016-07-31T00:02:57.923Z,75.17
2016-07-31T00:03:57.906Z,74.98
2016-07-31T00:04:57.891Z,75.27
2016-07-31T00:05:57.871Z,74.98
2016-07-31T00:06:57.849Z,74.98
2016-07-31T00:07:57.834Z,74.88
2016-07-31T00:08:57.818Z,74.98
2016-07-31T00:09:57.793Z,74.79
2016-07-31T00:10:57.778Z,74.79
2016-07-31T00:11:57.760Z,74.6
2016-07-31T00:12:57.740Z,74.88
2016-07-31T00:13:57.719Z,74.3
2016-07-31T00:14:57.699Z,74.3
2016-07-31T00:15:57.684Z,74.21
2016-07-31T00:16:57.664Z,74.11
2016-07-31T00:17:57.643Z,73.92
2016-07-31T00:18:57.626Z,73.83
2016-07-31T00:20:57.587Z,73.54
2016-07-31T00:21:57.571Z,73.83
2016-07-31T00:22:57.553Z,73.83
2016-07-31T00:23:57.529Z,73.15
2016-07-31T00:24:57.513Z,73.44
2016-07-31T00:25:57.494Z,73.25
2016-07-31T00:26:57.476Z,73.15
2016-07-31T00:28:57.439Z,73.15
2016-07-31T00:29:57.420Z,73.25
2016-07-31T00:30:57.403Z,74.02
2016-07-31T00:31:57.384Z,73.57
2016-07-31T00:32:57.372Z,73.54
2016-07-31T00:33:57.344Z,73.54
2016-07-31T00:34:57.325Z,73.47
2016-07-31T00:35:57.309Z,73.28
2016-07-31T00:36:57.292Z,73.15
2016-07-31T00:37:57.274Z,73.15
2016-07-31T00:38:57.251Z,73.25
2016-07-31T00:39:57.235Z,73.25
2016-07-31T00:40:57.216Z,73.15
2016-07-31T00:41:57.195Z,73.83
2016-07-31T00:43:57.159Z,73.73
2016-07-31T00:44:57.139Z,73.83
2016-07-31T00:45:57.127Z,73.73
2016-07-31T00:46:57.105Z,73.54
2016-07-31T00:47:57.086Z,73.63
2016-07-31T00:48:57.066Z,73.83
2016-07-31T00:49:57.047Z,73.35
2016-07-31T00:50:57.027Z,73.73
2016-07-31T00:51:57.009Z,74.02
2016-07-31T00:52:56.990Z,73.92
2016-07-31T00:53:56.972Z,74.11
2016-07-31T00:54:56.953Z,74.21
2016-07-31T00:55:56.935Z,74.21
2016-07-31T00:56:56.921Z,74.6
2016-07-31T00:58:56.878Z,74.79
2016-07-31T00:59:56.858Z,74.69
2016-07-31T01:00:56.838Z,74.55
2016-07-31T01:01:56.822Z,74.75
2016-07-31T01:02:56.801Z,74.85
2016-07-31T01:03:56.784Z,74.75
2016-07-31T01:04:56.772Z,74.85
2016-07-31T01:05:56.745Z,75.04
2016-07-31T01:06:56.725Z,74.75
2016-07-31T01:07:56.754Z,74.75
2016-07-31T01:08:56.685Z,75.42
2016-07-31T01:09:56.666Z,75.42
2016-07-31T01:10:56.647Z,75.32
2016-07-31T01:11:56.628Z,75.23
2016-07-31T01:13:56.588Z,75.32
2016-07-31T01:14:56.569Z,75.71
2016-07-31T01:15:56.549Z,75.71
2016-07-31T01:16:56.531Z,75.9
2016-07-31T01:17:56.510Z,75.71
2016-07-31T01:18:56.490Z,76.09
2016-07-31T01:19:56.471Z,75.9
2016-07-31T01:20:56.452Z,76.48
2016-07-31T01:21:56.434Z,76.29
2016-07-31T01:22:56.415Z,76.25
2016-07-31T01:23:56.397Z,76.34
2016-07-31T01:24:56.376Z,76.64
2016-07-31T01:25:56.354Z,76.48
2016-07-31T01:26:56.337Z,76.44
2016-07-31T01:28:56.297Z,76.54
2016-07-31T01:29:56.277Z,76.54
2016-07-31T01:30:56.259Z,76.25
2016-07-31T01:31:56.238Z,76.73
2016-07-31T01:32:56.914Z,76.73
2016-07-31T01:33:56.202Z,76.73
2016-07-31T01:34:56.179Z,77.11
2016-07-31T01:35:56.161Z,76.64
2016-07-31T01:36:56.140Z,77.31
2016-07-31T01:37:56.119Z,77.11
2016-07-31T01:38:56.104Z,77.01
2016-07-31T01:39:56.085Z,76.92
2016-07-31T01:40:56.064Z,76.82
2016-07-31T01:41:56.043Z,76.82
2016-07-31T01:42:56.025Z,76.92
2016-07-31T01:43:56.008Z,76.82
2016-07-31T01:44:55.983Z,76.92
2016-07-31T01:45:55.969Z,76.82
2016-07-31T01:46:55.946Z,76.82
2016-07-31T01:47:55.928Z,76.82
2016-07-31T01:48:55.906Z,76.92
2016-07-31T01:49:55.889Z,77.11
2016-07-31T01:50:55.878Z,77.11
2016-07-31T01:51:55.848Z,77.01
2016-07-31T01:52:55.830Z,77.31
2016-07-31T01:53:55.810Z,76.92
2016-07-31T01:54:55.791Z,77.01
2016-07-31T01:55:55.770Z,76.92
2016-07-31T01:56:55.752Z,77.21
2016-07-31T01:57:55.730Z,77.31
2016-07-31T01:58:55.711Z,76.82
2016-07-31T01:59:55.691Z,76.82
2016-07-31T02:00:55.673Z,76.73
2016-07-31T02:01:55.653Z,77.21
2016-07-31T02:02:55.631Z,77.31
2016-07-31T02:03:55.611Z,77.21
2016-07-31T02:04:55.595Z,77.31
2016-07-31T02:05:55.576Z,77.59
2016-07-31T02:06:55.554Z,76.82
2016-07-31T02:07:55.586Z,77.59
2016-07-31T02:08:55.516Z,77.31
2016-07-31T02:09:55.495Z,77.4
2016-07-31T02:10:55.477Z,77.5
2016-07-31T02:11:55.458Z,77.31
2016-07-31T02:12:55.450Z,77.31
2016-07-31T02:13:55.420Z,77.69
2016-07-31T02:14:55.398Z,77.69
2016-07-31T02:15:55.376Z,77.59
2016-07-31T02:16:55.361Z,77.69
2016-07-31T02:17:55.341Z,77.31
2016-07-31T02:18:55.323Z,77.98
2016-07-31T02:19:55.300Z,77.69
2016-07-31T02:20:55.281Z,77.5
2016-07-31T02:21:55.262Z,77.4
2016-07-31T02:22:55.243Z,77.4
2016-07-31T02:23:55.222Z,77.59
2016-07-31T02:24:55.202Z,77.59
2016-07-31T02:25:55.186Z,77.4
2016-07-31T02:26:55.166Z,77.5
2016-07-31T02:27:55.144Z,77.5
2016-07-31T02:28:55.125Z,77.78
2016-07-31T02:29:55.106Z,77.78
2016-07-31T02:30:55.086Z,77.78
2016-07-31T02:31:55.067Z,77.88
2016-07-31T02:32:55.048Z,77.78
2016-07-31T02:33:55.029Z,77.69
2016-07-31T02:34:55.007Z,77.59
2016-07-31T02:35:54.990Z,77.59
2016-07-31T02:36:54.972Z,77.88
2016-07-31T02:37:54.949Z,77.11
2016-07-31T02:38:55.625Z,77.69
2016-07-31T02:39:54.912Z,77.5
2016-07-31T02:40:54.893Z,77.69
2016-07-31T02:41:54.872Z,77.78
2016-07-31T02:42:54.854Z,77.69
2016-07-31T02:43:54.834Z,77.59
2016-07-31T02:44:54.814Z,77.59
2016-07-31T02:45:54.797Z,77.5
2016-07-31T02:46:54.772Z,77.4
2016-07-31T02:47:54.756Z,77.4
2016-07-31T02:48:54.735Z,77.4
2016-07-31T02:49:54.716Z,77.4
2016-07-31T02:50:54.698Z,77.5
2016-07-31T02:51:54.681Z,77.59
2016-07-31T02:52:54.660Z,77.59
2016-07-31T02:53:54.641Z,77.31
2016-07-31T02:54:54.624Z,77.59
2016-07-31T02:55:54.605Z,77.4
2016-07-31T02:56:54.589Z,77.31
2016-07-31T02:57:54.562Z,77.31
2016-07-31T02:58:54.543Z,77.4
2016-07-31T02:59:54.525Z,77.5
2016-07-31T03:00:54.506Z,77.31
2016-07-31T03:01:54.484Z,77.5
2016-07-31T03:02:54.467Z,77.31
2016-07-31T03:03:54.447Z,77.59
2016-07-31T03:04:54.429Z,77.4
2016-07-31T03:05:54.407Z,77.59
2016-07-31T03:06:54.416Z,77.59
2016-07-31T03:07:54.415Z,77.5
2016-07-31T03:08:54.349Z,77.69
2016-07-31T03:09:54.356Z,77.88
2016-07-31T03:10:54.320Z,77.69
2016-07-31T03:11:54.292Z,77.69
2016-07-31T03:12:54.289Z,77.59
2016-07-31T03:13:54.262Z,77.59
2016-07-31T03:14:54.234Z,77.69
2016-07-31T03:15:54.237Z,77.98
2016-07-31T03:16:54.241Z,78.27
2016-07-31T03:17:54.890Z,78.17
2016-07-31T03:18:54.189Z,78.17
2016-07-31T03:19:54.145Z,78.17
2016-07-31T03:20:54.162Z,78.17
2016-07-31T03:21:54.104Z,78.17
2016-07-31T03:22:54.082Z,78.17
2016-07-31T03:23:54.061Z,78.21
2016-07-31T03:24:54.063Z,78.17
2016-07-31T03:25:54.029Z,78.17
2016-07-31T03:26:54.007Z,78.36
2016-07-31T03:27:53.988Z,78.3
2016-07-31T03:28:53.969Z,78.11
2016-07-31T03:29:53.970Z,77.73
2016-07-31T03:30:53.957Z,77.63
2016-07-31T03:31:53.927Z,77.63
2016-07-31T03:32:53.898Z,77.63
2016-07-31T03:33:53.884Z,77.73
2016-07-31T03:34:53.873Z,77.73
2016-07-31T03:35:53.855Z,77.63
2016-07-31T03:36:53.855Z,78.4
2016-07-31T03:37:53.832Z,78.3
2016-07-31T03:38:53.822Z,78.11
2016-07-31T03:39:53.790Z,78.5
2016-07-31T03:40:53.766Z,78.3
2016-07-31T03:41:53.751Z,78.36
2016-07-31T03:42:53.711Z,77.98
2016-07-31T03:43:53.681Z,78.17
2016-07-31T03:44:53.701Z,77.88
2016-07-31T03:45:53.665Z,78.21
2016-07-31T03:46:53.622Z,78.17
2016-07-31T03:47:53.608Z,78.27
2016-07-31T03:48:53.589Z,78.17
2016-07-31T03:49:53.566Z,78.27
2016-07-31T03:50:53.544Z,78.84
2016-07-31T03:51:53.527Z,78.75
2016-07-31T03:52:53.508Z,78.55
2016-07-31T03:53:53.489Z,78.65
2016-07-31T03:54:53.468Z,78.84
2016-07-31T03:55:53.450Z,78.65
2016-07-31T03:56:53.431Z,79.13
2016-07-31T03:57:53.413Z,79.13
2016-07-31T03:58:53.394Z,79.22
2016-07-31T03:59:53.376Z,79.03
2016-07-31T04:00:53.355Z,78.65
2016-07-31T04:01:53.335Z,78.75
2016-07-31T04:02:53.315Z,78.65
2016-07-31T04:03:53.298Z,78.94
2016-07-31T04:04:53.279Z,78.94
2016-07-31T04:05:53.260Z,78.94
2016-07-31T04:06:53.240Z,78.55
2016-07-31T04:07:53.225Z,78.55
2016-07-31T04:08:53.203Z,78.45
2016-07-31T04:09:53.184Z,78.94
2016-07-31T04:10:53.163Z,78.65
2016-07-31T04:11:53.142Z,78.75
2016-07-31T04:12:53.126Z,78.45
2016-07-31T04:13:53.105Z,78.55
2016-07-31T04:14:53.090Z,78.55
2016-07-31T04:15:53.067Z,78.55
2016-07-31T04:16:53.046Z,78.65
2016-07-31T04:17:53.030Z,78.45
2016-07-31T04:18:53.008Z,78.45
2016-07-31T04:19:52.992Z,78.55
2016-07-31T04:20:52.972Z,79.07
2016-07-31T04:21:52.954Z,79.07
2016-07-31T04:22:52.934Z,78.78
2016-07-31T04:23:52.914Z,78.69
2016-07-31T04:24:52.894Z,79.07
2016-07-31T04:25:52.875Z,78.98
2016-07-31T04:26:52.858Z,78.65
2016-07-31T04:27:52.846Z,78.55
2016-07-31T04:29:52.799Z,78.59
2016-07-31T04:30:52.784Z,78.94
2016-07-31T04:31:52.762Z,78.5
2016-07-31T04:32:52.743Z,78.5
2016-07-31T04:33:52.727Z,78.5
2016-07-31T04:34:52.707Z,78.69
2016-07-31T04:35:52.688Z,78.59
2016-07-31T04:36:52.668Z,78.59
2016-07-31T04:37:52.650Z,78.5
2016-07-31T04:38:52.635Z,78.69
2016-07-31T04:39:52.608Z,78.78
2016-07-31T04:40:52.602Z,78.88
2016-07-31T04:41:52.573Z,78.21
2016-07-31T04:42:52.557Z,78.88
2016-07-31T04:44:52.519Z,78.4
2016-07-31T04:45:52.496Z,78.21
2016-07-31T04:46:52.480Z,78.21
2016-07-31T04:47:52.466Z,78.11
2016-07-31T04:48:52.441Z,78.02
2016-07-31T04:49:52.426Z,78.11
2016-07-31T04:50:52.405Z,78.5
2016-07-31T04:51:52.387Z,77.53
2016-07-31T04:52:52.368Z,77.92
2016-07-31T04:53:53.046Z,77.73
2016-07-31T04:54:52.331Z,77.73
2016-07-31T04:55:52.318Z,77.44
2016-07-31T04:56:52.294Z,77.63
2016-07-31T04:57:52.277Z,77.53
2016-07-31T04:59:52.238Z,77.34
2016-07-31T05:00:52.221Z,77.63
2016-07-31T05:01:52.201Z,77.44
2016-07-31T05:02:52.183Z,77.44
2016-07-31T05:03:52.170Z,76.86
2016-07-31T05:04:52.145Z,77.44
2016-07-31T05:05:52.128Z,77.06
2016-07-31T05:06:52.109Z,77.15
2016-07-31T05:07:52.089Z,76.77
2016-07-31T05:08:52.070Z,77.34
2016-07-31T05:09:52.055Z,76.96
2016-07-31T05:10:52.034Z,77.15
2016-07-31T05:11:52.018Z,77.44
2016-07-31T05:12:51.998Z,77.15
2016-07-31T05:13:51.978Z,77.06
2016-07-31T05:14:51.962Z,76.86
2016-07-31T05:15:51.943Z,76.96
2016-07-31T05:16:51.923Z,76.96
2016-07-31T05:17:51.907Z,77.06
2016-07-31T05:18:51.890Z,77.15
2016-07-31T05:19:51.868Z,77.15
2016-07-31T05:20:51.852Z,77.15
2016-07-31T05:21:51.834Z,77.25
2016-07-31T05:22:51.816Z,77
2016-07-31T05:23:51.806Z,76.71
2016-07-31T05:24:51.781Z,76.81
2016-07-31T05:25:51.762Z,76.71
2016-07-31T05:26:51.745Z,76.81
2016-07-31T05:27:51.729Z,76.71
2016-07-31T05:28:51.708Z,76.61
2016-07-31T05:29:51.689Z,76.71
2016-07-31T05:30:51.669Z,76.32
2016-07-31T05:31:51.655Z,76.32
2016-07-31T05:32:51.636Z,76.23
2016-07-31T05:33:51.615Z,76.23
2016-07-31T05:34:51.599Z,76.23
2016-07-31T05:35:51.580Z,75.94
2016-07-31T05:36:51.563Z,76.14
2016-07-31T05:37:51.545Z,75.94
2016-07-31T05:38:51.527Z,75.94
2016-07-31T05:39:51.510Z,75.56
2016-07-31T05:40:51.492Z,75.84
2016-07-31T05:41:51.473Z,75.84
2016-07-31T05:42:51.454Z,75.75
2016-07-31T05:43:51.443Z,75.56
2016-07-31T05:44:51.418Z,75.65
2016-07-31T05:45:51.401Z,75.56
2016-07-31T05:46:51.384Z,75.75
2016-07-31T05:47:51.366Z,75.56
2016-07-31T05:48:51.347Z,75.65
2016-07-31T05:49:51.329Z,75.65
2016-07-31T05:50:51.311Z,75.46
2016-07-31T05:51:51.294Z,75.56
2016-07-31T05:52:51.276Z,75.65
2016-07-31T05:53:51.260Z,75.37
2016-07-31T05:54:51.242Z,75.27
2016-07-31T05:55:51.225Z,75.4
2016-07-31T05:56:51.204Z,74.92
2016-07-31T05:57:51.190Z,74.92
2016-07-31T05:58:51.171Z,75.02
2016-07-31T05:59:51.152Z,74.92
2016-07-31T06:00:51.135Z,74.88
2016-07-31T06:01:51.118Z,75.21
2016-07-31T06:02:51.106Z,74.73
2016-07-31T06:03:51.084Z,74.63
2016-07-31T06:04:51.065Z,74.82
2016-07-31T06:05:51.047Z,74.73
2016-07-31T06:06:51.028Z,74.82
2016-07-31T06:07:51.010Z,74.44
2016-07-31T06:08:50.992Z,74.44
2016-07-31T06:09:50.977Z,74.54
2016-07-31T06:10:50.958Z,74.54
2016-07-31T06:11:50.942Z,74.15
2016-07-31T06:12:50.925Z,74.15
2016-07-31T06:13:50.906Z,74.25
2016-07-31T06:14:50.889Z,74.34
2016-07-31T06:15:50.872Z,74.05
2016-07-31T06:16:50.855Z,74.34
2016-07-31T06:17:50.841Z,73.67
2016-07-31T06:18:50.827Z,73.8
2016-07-31T06:19:50.802Z,73.61
2016-07-31T06:20:50.783Z,73.71
2016-07-31T06:21:50.767Z,73.61
2016-07-31T06:22:50.750Z,73.67
2016-07-31T06:23:51.426Z,73.9
2016-07-31T06:24:50.714Z,73.38
2016-07-31T06:25:50.699Z,73.51
2016-07-31T06:26:50.686Z,73.28
2016-07-31T06:27:50.665Z,73.38
2016-07-31T06:28:50.648Z,73.22
2016-07-31T06:29:50.628Z,73.61
2016-07-31T06:30:50.612Z,73.8
2016-07-31T06:31:50.595Z,73.32
2016-07-31T06:32:50.575Z,73.22
2016-07-31T06:33:50.562Z,73.51
2016-07-31T06:34:50.548Z,73.8
2016-07-31T06:35:50.528Z,73.51
2016-07-31T06:36:50.509Z,72.65
2016-07-31T06:37:50.494Z,72.74
2016-07-31T06:38:50.475Z,73.03
2016-07-31T06:39:50.459Z,73.03
2016-07-31T06:40:50.442Z,72.55
2016-07-31T06:41:50.427Z,72.17
2016-07-31T06:42:50.410Z,72.17
2016-07-31T06:43:50.393Z,72.74
2016-07-31T06:44:50.375Z,72.74
2016-07-31T06:45:50.372Z,72.55
2016-07-31T06:46:50.345Z,72.36
2016-07-31T06:47:50.326Z,72.65
2016-07-31T06:48:50.312Z,72.74
2016-07-31T06:49:50.299Z,72.65
2016-07-31T06:50:50.280Z,72.36
2016-07-31T06:51:50.261Z,72.45
2016-07-31T06:52:50.248Z,72.07
2016-07-31T06:53:50.228Z,71.78
2016-07-31T06:54:50.214Z,71.4
2016-07-31T06:55:50.199Z,71.69
2016-07-31T06:56:50.181Z,71.62
2016-07-31T06:57:50.164Z,71.72
2016-07-31T06:58:50.151Z,71.53
2016-07-31T06:59:50.132Z,71.24
2016-07-31T07:00:50.119Z,71.14
2016-07-31T07:01:50.106Z,70.95
2016-07-31T07:02:50.086Z,70.47
2016-07-31T07:03:50.075Z,70.66
2016-07-31T07:04:50.058Z,70.66
2016-07-31T07:05:50.041Z,70.76
2016-07-31T07:06:50.026Z,70.28
2016-07-31T07:07:50.010Z,70.28
2016-07-31T07:08:49.997Z,69.99
2016-07-31T07:09:49.979Z,69.73
2016-07-31T07:10:49.963Z,69.45
2016-07-31T07:11:49.945Z,69.25
2016-07-31T07:12:49.934Z,69.06
2016-07-31T07:13:49.918Z,68.96
2016-07-31T07:14:49.902Z,68.96
2016-07-31T07:15:49.885Z,69.35
2016-07-31T07:16:49.871Z,69.25
2016-07-31T07:17:49.863Z,68.68
2016-07-31T07:18:49.838Z,69.06
2016-07-31T07:19:49.825Z,69.15
2016-07-31T07:20:49.806Z,68.68
2016-07-31T07:21:49.793Z,68.38
2016-07-31T07:22:49.778Z,68.68
2016-07-31T07:23:49.760Z,68.48
2016-07-31T07:24:49.743Z,68.1
2016-07-31T07:25:49.728Z,68.58
2016-07-31T07:26:49.713Z,68
2016-07-31T07:27:49.695Z,68
2016-07-31T07:28:49.680Z,68.1
2016-07-31T07:29:49.667Z,68
2016-07-31T07:30:49.653Z,67.9
2016-07-31T07:31:49.644Z,67.9
2016-07-31T07:32:49.620Z,67.71
2016-07-31T07:33:49.604Z,67.81
2016-07-31T07:34:49.591Z,67.74
2016-07-31T07:35:49.573Z,68
2016-07-31T07:36:49.557Z,67.81
2016-07-31T07:37:49.545Z,67.9
2016-07-31T07:38:49.526Z,67.9
2016-07-31T07:39:49.510Z,68.19
2016-07-31T07:40:49.495Z,67.9
2016-07-31T07:41:49.483Z,68
2016-07-31T07:42:49.465Z,68
2016-07-31T07:43:49.449Z,67.81
2016-07-31T07:44:49.435Z,67.81
2016-07-31T07:45:49.418Z,68
2016-07-31T07:46:49.404Z,67.71
2016-07-31T07:47:49.385Z,67.33
2016-07-31T07:48:49.375Z,67.03
2016-07-31T07:49:49.358Z,67.07
2016-07-31T07:50:49.340Z,66.2
2016-07-31T07:51:49.326Z,66.11
2016-07-31T07:52:49.312Z,65.24
2016-07-31T07:53:49.296Z,64.31
2016-07-31T07:54:49.283Z,64.4
2016-07-31T07:55:49.267Z,64.02
2016-07-31T07:56:49.252Z,63.54
2016-07-31T07:57:49.242Z,62.99
2016-07-31T07:58:49.227Z,62.57
2016-07-31T07:59:49.213Z,62.57
2016-07-31T08:00:49.198Z,62.38
2016-07-31T08:01:49.185Z,62.09
2016-07-31T08:02:49.168Z,62.09
2016-07-31T08:03:49.159Z,62.18
2016-07-31T08:04:49.141Z,62.09
2016-07-31T08:05:49.127Z,61.83
2016-07-31T08:06:49.114Z,61.41
2016-07-31T08:07:49.098Z,61.51
2016-07-31T08:08:49.085Z,61.9
2016-07-31T08:09:49.078Z,61.25
2016-07-31T08:10:49.055Z,61.06
2016-07-31T08:11:49.040Z,60.68
2016-07-31T08:12:49.029Z,60.77
2016-07-31T08:13:49.012Z,60.38
2016-07-31T08:14:49.000Z,60.58
2016-07-31T08:15:48.990Z,60.28
2016-07-31T08:16:48.971Z,60.86
2016-07-31T08:17:48.959Z,60.19
2016-07-31T08:18:48.943Z,59.9
2016-07-31T08:19:48.929Z,59.71
2016-07-31T08:20:48.921Z,60.19
2016-07-31T08:21:48.901Z,59.71
2016-07-31T08:22:48.887Z,59.8
2016-07-31T08:23:48.876Z,59.03
2016-07-31T08:24:48.858Z,59.32
2016-07-31T08:25:48.846Z,59.23
2016-07-31T08:26:48.831Z,59.3
2016-07-31T08:27:48.818Z,59.32
2016-07-31T08:28:48.804Z,59.1
2016-07-31T08:29:48.791Z,59.3
2016-07-31T08:30:48.775Z,59.1
2016-07-31T08:31:48.762Z,59.39
2016-07-31T08:32:48.747Z,59.3
2016-07-31T08:33:48.734Z,59.1
2016-07-31T08:34:48.719Z,58.81
2016-07-31T08:35:48.710Z,58.91
2016-07-31T08:36:48.693Z,58.62
2016-07-31T08:37:48.678Z,58.14
2016-07-31T08:38:48.663Z,58.81
2016-07-31T08:39:48.649Z,58.62
2016-07-31T08:40:48.636Z,58.52
2016-07-31T08:41:48.704Z,58.33
2016-07-31T08:42:48.734Z,58.81
2016-07-31T08:43:48.595Z,58.33
2016-07-31T08:44:48.583Z,58.04
2016-07-31T08:45:48.569Z,57.75
2016-07-31T08:46:48.555Z,57.56
2016-07-31T08:47:48.539Z,57.46
2016-07-31T08:48:48.526Z,57.87
2016-07-31T08:49:48.514Z,57.39
2016-07-31T08:50:48.499Z,57.2
2016-07-31T08:51:48.485Z,57.2
2016-07-31T08:52:48.474Z,56.81
2016-07-31T08:53:48.459Z,56.81
2016-07-31T08:54:48.448Z,56.52
2016-07-31T08:55:48.434Z,56.56
2016-07-31T08:56:48.421Z,55.88
2016-07-31T08:57:48.411Z,56.16
2016-07-31T08:58:48.398Z,55.88
2016-07-31T09:00:48.371Z,56.07
2016-07-31T09:01:48.358Z,56.26
2016-07-31T09:02:48.347Z,55.98
2016-07-31T09:03:48.335Z,56.26
2016-07-31T09:04:48.321Z,55.62
2016-07-31T09:05:48.312Z,56.2
2016-07-31T09:06:48.299Z,55.9
2016-07-31T09:07:48.287Z,55.42
2016-07-31T09:08:48.275Z,56.2
2016-07-31T09:09:48.262Z,55.52
2016-07-31T09:10:48.259Z,55.45
2016-07-31T09:11:48.238Z,55.26
2016-07-31T09:12:48.227Z,55.16
2016-07-31T09:13:48.213Z,55.55
2016-07-31T09:15:48.190Z,55.26
2016-07-31T09:16:48.180Z,55.13
2016-07-31T09:17:48.165Z,55.13
2016-07-31T09:18:48.153Z,55.33
2016-07-31T09:19:48.143Z,55.42
2016-07-31T09:20:48.128Z,55.13
2016-07-31T09:21:48.115Z,55.23
2016-07-31T09:22:48.103Z,55.9
2016-07-31T09:23:48.091Z,55.59
2016-07-31T09:24:48.073Z,56.56
2016-07-31T09:25:48.063Z,56.46
2016-07-31T09:26:48.049Z,56.81
2016-07-31T09:27:48.035Z,57.01
2016-07-31T09:28:48.023Z,56.81
2016-07-31T09:30:47.995Z,57.2
2016-07-31T09:31:47.979Z,57.49
2016-07-31T09:32:47.965Z,57.78
2016-07-31T09:33:47.952Z,57.49
2016-07-31T09:34:47.940Z,57.78
2016-07-31T09:35:47.923Z,57.49
2016-07-31T09:36:47.910Z,57.78
2016-07-31T09:37:47.898Z,57.1
2016-07-31T09:38:47.880Z,57.2
2016-07-31T09:39:47.870Z,57.39
2016-07-31T09:40:47.856Z,57.17
2016-07-31T09:41:47.841Z,57.1
2016-07-31T09:42:47.826Z,56.43
2016-07-31T09:43:47.814Z,55.76
2016-07-31T09:44:47.800Z,55.68
2016-07-31T09:45:47.785Z,55.3
2016-07-31T09:46:47.774Z,55.4
2016-07-31T09:47:47.760Z,55.1
2016-07-31T09:48:47.744Z,54.91
2016-07-31T09:49:47.735Z,54.53
2016-07-31T09:50:47.720Z,54.24
2016-07-31T09:51:47.705Z,54.33
2016-07-31T09:52:47.696Z,53.88
2016-07-31T09:53:47.681Z,53.2
2016-07-31T09:54:47.673Z,53.3
2016-07-31T09:55:47.655Z,53.01
2016-07-31T09:56:47.642Z,53.11
2016-07-31T09:57:47.639Z,53.49
2016-07-31T09:58:47.614Z,53.2
2016-07-31T09:59:47.604Z,53.01
2016-07-31T10:00:47.595Z,52.53
2016-07-31T10:01:47.578Z,52.81
2016-07-31T10:02:47.567Z,52.84
2016-07-31T10:03:47.555Z,52.94
2016-07-31T10:04:47.543Z,52.75
2016-07-31T10:05:47.529Z,52.55
2016-07-31T10:06:47.515Z,52.81
2016-07-31T10:07:47.504Z,52.43
2016-07-31T10:08:47.491Z,52.43
2016-07-31T10:09:47.478Z,52.53
2016-07-31T10:10:47.466Z,52.69
2016-07-31T10:11:47.453Z,52.5
2016-07-31T10:12:47.436Z,52.4
2016-07-31T10:13:47.429Z,52.69
2016-07-31T10:14:47.413Z,52.5
2016-07-31T10:15:47.400Z,51.95
2016-07-31T10:16:47.390Z,51.95
2016-07-31T10:17:47.375Z,51.75
2016-07-31T10:18:47.360Z,52.14
2016-07-31T10:19:47.350Z,51.85
2016-07-31T10:20:47.335Z,51.85
2016-07-31T10:21:47.320Z,51.95
2016-07-31T10:22:47.308Z,51.46
2016-07-31T10:23:47.295Z,51.27
2016-07-31T10:24:47.283Z,51.01
2016-07-31T10:25:47.269Z,50.71
2016-07-31T10:26:47.257Z,50.33
2016-07-31T10:27:47.244Z,49.95
2016-07-31T10:28:47.234Z,49.97
2016-07-31T10:29:47.222Z,49.49
2016-07-31T10:30:47.207Z,49.68
2016-07-31T10:31:47.198Z,49.77
2016-07-31T10:32:47.183Z,49.39
2016-07-31T10:33:47.173Z,49.19
2016-07-31T10:34:47.166Z,49.1
2016-07-31T10:35:47.148Z,48.61
2016-07-31T10:36:47.146Z,49.19
2016-07-31T10:37:47.126Z,49
2016-07-31T10:38:47.116Z,48.71
2016-07-31T10:39:47.105Z,49.29
2016-07-31T10:40:47.095Z,49.07
2016-07-31T10:41:47.080Z,49.27
2016-07-31T10:42:47.068Z,48.39
2016-07-31T10:43:47.059Z,48.9
2016-07-31T10:44:47.045Z,48.9
2016-07-31T10:45:47.032Z,49.19
2016-07-31T10:46:47.032Z,49.29
2016-07-31T10:47:47.010Z,49.19
2016-07-31T10:48:47.001Z,49
2016-07-31T10:49:46.984Z,48.81
2016-07-31T10:50:46.971Z,49.29
2016-07-31T10:51:46.959Z,49.19
2016-07-31T10:52:46.947Z,49.49
2016-07-31T10:53:46.935Z,48.9
2016-07-31T10:54:46.921Z,49.17
2016-07-31T10:55:46.911Z,49.49
2016-07-31T10:56:46.898Z,49.55
2016-07-31T10:57:46.887Z,49.65
2016-07-31T10:58:46.875Z,49.85
2016-07-31T10:59:46.859Z,50.13
2016-07-31T11:00:46.847Z,50.13
2016-07-31T11:01:46.837Z,49.65
2016-07-31T11:02:46.825Z,49.65
2016-07-31T11:03:46.815Z,48.13
2016-07-31T11:04:46.801Z,48.13
2016-07-31T11:05:46.789Z,48.42
2016-07-31T11:06:46.778Z,47.45
2016-07-31T11:07:46.768Z,47.55
2016-07-31T11:08:47.446Z,47.55
2016-07-31T11:09:46.745Z,47.84
2016-07-31T11:10:46.734Z,48.52
2016-07-31T11:11:46.722Z,47.77
2016-07-31T11:12:46.710Z,47.67
2016-07-31T11:13:46.701Z,47.36
2016-07-31T11:14:46.688Z,47.74
2016-07-31T11:15:46.677Z,47.55
2016-07-31T11:16:46.667Z,47.65
2016-07-31T11:17:46.652Z,47.74
2016-07-31T11:18:46.642Z,47.84
2016-07-31T11:19:46.630Z,47.65
2016-07-31T11:20:46.616Z,47.26
2016-07-31T11:21:46.604Z,47.81
2016-07-31T11:22:46.593Z,47.91
2016-07-31T11:23:46.579Z,48.3
2016-07-31T11:24:46.571Z,47.91
2016-07-31T11:25:46.555Z,48.3
2016-07-31T11:26:46.595Z,48.11
2016-07-31T11:27:46.531Z,47.53
2016-07-31T11:28:46.518Z,47.53
2016-07-31T11:29:46.504Z,48.08
2016-07-31T11:30:46.493Z,48.95
2016-07-31T11:31:46.477Z,49.73
2016-07-31T11:32:46.464Z,49.7
2016-07-31T11:33:46.451Z,50.38
2016-07-31T11:34:46.438Z,51.15
2016-07-31T11:35:46.426Z,51.15
2016-07-31T11:36:46.413Z,52.01
2016-07-31T11:37:46.395Z,52.67
2016-07-31T11:38:46.382Z,53.34
2016-07-31T11:39:46.367Z,53.73
2016-07-31T11:40:46.355Z,54.47
2016-07-31T11:41:46.339Z,54.28
2016-07-31T11:42:46.327Z,54.96
2016-07-31T11:43:46.312Z,55.15
2016-07-31T11:44:46.295Z,55.34
2016-07-31T11:45:46.282Z,55.63
2016-07-31T11:46:46.267Z,56.11
2016-07-31T11:47:46.255Z,56.37
2016-07-31T11:48:46.244Z,55.99
2016-07-31T11:49:46.223Z,56.09
2016-07-31T11:50:46.204Z,56.76
2016-07-31T11:51:46.192Z,56.27
2016-07-31T11:52:46.176Z,56.27
2016-07-31T11:53:46.161Z,56.09
2016-07-31T11:54:46.148Z,56.63
2016-07-31T11:55:46.132Z,56.35
2016-07-31T11:56:46.115Z,56.73
2016-07-31T11:57:46.101Z,57.6
2016-07-31T11:58:46.083Z,58.47
2016-07-31T11:59:46.068Z,59.43
2016-07-31T12:00:46.055Z,60.17
2016-07-31T12:01:46.041Z,60.84
2016-07-31T12:02:46.713Z,62.19
2016-07-31T12:03:46.004Z,63.15
2016-07-31T12:04:45.990Z,63.34
2016-07-31T12:05:45.973Z,63.34
2016-07-31T12:06:45.966Z,63.92
2016-07-31T12:07:45.942Z,64.37
2016-07-31T12:08:45.926Z,64.95
2016-07-31T12:09:45.921Z,65.33
2016-07-31T12:10:45.895Z,65.63
2016-07-31T12:11:45.877Z,65.91
2016-07-31T12:12:45.862Z,66.1
2016-07-31T12:13:45.847Z,66.1
2016-07-31T12:14:45.830Z,66.88
2016-07-31T12:15:45.813Z,67.45
2016-07-31T12:16:45.797Z,67.35
2016-07-31T12:17:45.783Z,67.16
2016-07-31T12:18:45.766Z,67.93
2016-07-31T12:19:45.748Z,68.03
2016-07-31T12:20:45.732Z,68.51
2016-07-31T12:21:45.715Z,69.28
2016-07-31T12:22:45.700Z,69.57
2016-07-31T12:23:45.680Z,69.95
2016-07-31T12:24:45.667Z,70.15
2016-07-31T12:25:45.660Z,70.62
2016-07-31T12:26:45.636Z,70.98
2016-07-31T12:27:45.614Z,71.55
2016-07-31T12:28:45.599Z,71.55
2016-07-31T12:29:45.585Z,72.23
2016-07-31T12:31:45.548Z,73.38
2016-07-31T12:32:45.534Z,73.86
2016-07-31T12:33:45.515Z,73.47
2016-07-31T12:34:45.511Z,73.38
2016-07-31T12:35:45.484Z,73.38
2016-07-31T12:36:45.466Z,73.96
2016-07-31T12:37:45.450Z,73.77
2016-07-31T12:38:45.431Z,73.86
2016-07-31T12:39:45.415Z,73.67
2016-07-31T12:40:45.399Z,73.67
2016-07-31T12:41:45.381Z,73.19
2016-07-31T12:42:45.363Z,73.19
2016-07-31T12:43:45.348Z,74.05
2016-07-31T12:44:45.331Z,73.96
2016-07-31T12:45:45.313Z,73.86
2016-07-31T12:46:45.296Z,74.15
2016-07-31T12:47:46.105Z,74.25
2016-07-31T12:48:45.259Z,74.38
2016-07-31T12:49:45.243Z,74.57
2016-07-31T12:50:45.228Z,74.44
2016-07-31T12:51:45.208Z,74.67
2016-07-31T12:52:45.191Z,74.76
2016-07-31T12:53:45.178Z,74.86
2016-07-31T12:54:45.160Z,74.57
2016-07-31T12:55:45.145Z,75.15
2016-07-31T12:56:45.124Z,75.15
2016-07-31T12:57:45.108Z,74.86
2016-07-31T12:58:45.094Z,74.86
2016-07-31T12:59:45.077Z,74.76
2016-07-31T13:00:45.059Z,75.05
2016-07-31T13:01:45.043Z,75.09
2016-07-31T13:02:45.029Z,74.99
2016-07-31T13:03:45.008Z,74.8
2016-07-31T13:04:44.994Z,74.8
2016-07-31T13:05:44.978Z,74.8
2016-07-31T13:06:44.962Z,74.93
2016-07-31T13:07:44.956Z,74.26
2016-07-31T13:08:44.930Z,74.55
2016-07-31T13:09:44.912Z,74.07